sensor_id;sensor_type;location;lat;lon;timestamp;pressure;altitude;pressure_sealevel;temperature;humidity
64632;BME280;58358;50.936;0.246;2022-08-21T00:01:16;101126.44;;;14.48;58.71
64632;BME280;58358;50.936;0.246;2022-08-21T00:03:38;101125.34;;;16.66;54.29
64632;BME280;58358;50.936;0.246;2022-08-21T00:06:04;101122.25;;;17.07;53.79
64632;BME280;58358;50.936;0.246;2022-08-21T00:08:29;101118.59;;;15.97;56.22
64632;BME280;58358;50.936;0.246;2022-08-21T00:10:54;101115.16;;;16.61;53.75
64632;BME280;58358;50.936;0.246;2022-08-21T00:13:20;101114.21;;;16.42;54.34
64632;BME280;58358;50.936;0.246;2022-08-21T00:15:46;101122.55;;;15.22;58.10
64632;BME280;58358;50.936;0.246;2022-08-21T00:18:11;101121.21;;;15.17;56.37
64632;BME280;58358;50.936;0.246;2022-08-21T00:20:38;101116.38;;;16.47;54.28
64632;BME280;58358;50.936;0.246;2022-08-21T00:23:03;101114.23;;;16.76;53.09
64632;BME280;58358;50.936;0.246;2022-08-21T00:25:28;101109.53;;;16.59;52.78
64632;BME280;58358;50.936;0.246;2022-08-21T00:27:54;101108.32;;;16.97;52.28
64632;BME280;58358;50.936;0.246;2022-08-21T00:30:22;101107.35;;;16.75;52.84
64632;BME280;58358;50.936;0.246;2022-08-21T00:32:45;101106.22;;;16.93;51.99
64632;BME280;58358;50.936;0.246;2022-08-21T00:35:15;101107.80;;;16.50;51.92
64632;BME280;58358;50.936;0.246;2022-08-21T00:37:36;101105.13;;;17.26;51.26
64632;BME280;58358;50.936;0.246;2022-08-21T00:40:10;101108.33;;;17.10;51.38
64632;BME280;58358;50.936;0.246;2022-08-21T00:42:29;101113.86;;;17.67;50.31
64632;BME280;58358;50.936;0.246;2022-08-21T00:44:53;101114.87;;;17.31;51.17
64632;BME280;58358;50.936;0.246;2022-08-21T00:47:19;101117.80;;;17.37;50.64
64632;BME280;58358;50.936;0.246;2022-08-21T00:49:44;101116.24;;;17.39;50.84
64632;BME280;58358;50.936;0.246;2022-08-21T00:52:12;101113.07;;;16.72;52.00
64632;BME280;58358;50.936;0.246;2022-08-21T00:54:36;101114.95;;;16.93;51.97
64632;BME280;58358;50.936;0.246;2022-08-21T00:57:05;101120.95;;;16.22;53.83
64632;BME280;58358;50.936;0.246;2022-08-21T00:59:29;101121.03;;;16.49;53.43
64632;BME280;58358;50.936;0.246;2022-08-21T01:01:53;101124.34;;;15.86;54.19
64632;BME280;58358;50.936;0.246;2022-08-21T01:04:18;101122.74;;;15.54;55.67
64632;BME280;58358;50.936;0.246;2022-08-21T01:06:45;101119.28;;;16.20;53.91
64632;BME280;58358;50.936;0.246;2022-08-21T01:09:10;101119.82;;;15.65;54.48
64632;BME280;58358;50.936;0.246;2022-08-21T01:11:35;101121.86;;;15.51;54.81
64632;BME280;58358;50.936;0.246;2022-08-21T01:14:01;101122.80;;;15.87;55.27
64632;BME280;58358;50.936;0.246;2022-08-21T01:16:27;101120.41;;;16.47;53.98
64632;BME280;58358;50.936;0.246;2022-08-21T01:18:52;101120.50;;;15.36;56.00
64632;BME280;58358;50.936;0.246;2022-08-21T01:21:19;101116.68;;;16.04;54.04
64632;BME280;58358;50.936;0.246;2022-08-21T01:23:46;101112.42;;;16.26;53.69
64632;BME280;58358;50.936;0.246;2022-08-21T01:26:12;101107.61;;;14.27;55.86
64632;BME280;58358;50.936;0.246;2022-08-21T01:28:40;101103.09;;;15.92;53.45
64632;BME280;58358;50.936;0.246;2022-08-21T01:31:01;101095.96;;;15.60;53.90
64632;BME280;58358;50.936;0.246;2022-08-21T01:33:26;101090.36;;;15.64;54.36
64632;BME280;58358;50.936;0.246;2022-08-21T01:35:52;101090.00;;;16.18;53.03
64632;BME280;58358;50.936;0.246;2022-08-21T01:38:18;101093.69;;;16.09;52.74
64632;BME280;58358;50.936;0.246;2022-08-21T01:40:43;101099.75;;;15.75;53.42
64632;BME280;58358;50.936;0.246;2022-08-21T01:43:11;101096.75;;;15.66;52.65
64632;BME280;58358;50.936;0.246;2022-08-21T01:45:34;101101.74;;;16.42;51.68
64632;BME280;58358;50.936;0.246;2022-08-21T01:48:00;101101.76;;;14.98;56.31
64632;BME280;58358;50.936;0.246;2022-08-21T01:50:26;101101.84;;;15.16;55.67
64632;BME280;58358;50.936;0.246;2022-08-21T01:52:52;101102.75;;;15.43;54.70
64632;BME280;58358;50.936;0.246;2022-08-21T01:55:19;101098.39;;;15.88;53.57
64632;BME280;58358;50.936;0.246;2022-08-21T01:57:44;101101.54;;;15.36;54.36
64632;BME280;58358;50.936;0.246;2022-08-21T02:00:12;101101.25;;;14.29;55.68
64632;BME280;58358;50.936;0.246;2022-08-21T02:02:35;101106.89;;;15.45;54.21
64632;BME280;58358;50.936;0.246;2022-08-21T02:05:00;101105.72;;;15.08;55.33
64632;BME280;58358;50.936;0.246;2022-08-21T02:07:26;101105.56;;;14.68;56.44
64632;BME280;58358;50.936;0.246;2022-08-21T02:09:52;101103.48;;;14.09;57.00
64632;BME280;58358;50.936;0.246;2022-08-21T02:12:17;101104.27;;;14.89;55.92
64632;BME280;58358;50.936;0.246;2022-08-21T02:14:43;101107.98;;;14.38;56.96
64632;BME280;58358;50.936;0.246;2022-08-21T02:17:09;101107.15;;;14.58;55.37
64632;BME280;58358;50.936;0.246;2022-08-21T02:19:35;101103.71;;;14.65;54.97
64632;BME280;58358;50.936;0.246;2022-08-21T02:22:00;101102.64;;;14.96;55.03
64632;BME280;58358;50.936;0.246;2022-08-21T02:24:26;101104.86;;;14.36;55.84
64632;BME280;58358;50.936;0.246;2022-08-21T02:26:52;101103.54;;;13.10;59.24
64632;BME280;58358;50.936;0.246;2022-08-21T02:29:18;101095.45;;;11.97;62.07
64632;BME280;58358;50.936;0.246;2022-08-21T02:31:43;101097.42;;;12.44;61.53
64632;BME280;58358;50.936;0.246;2022-08-21T02:34:10;101089.50;;;13.65;57.26
64632;BME280;58358;50.936;0.246;2022-08-21T02:36:35;101097.63;;;13.18;59.61
64632;BME280;58358;50.936;0.246;2022-08-21T02:39:01;101092.17;;;13.99;57.28
64632;BME280;58358;50.936;0.246;2022-08-21T02:41:26;101090.16;;;13.74;56.61
64632;BME280;58358;50.936;0.246;2022-08-21T02:43:52;101086.65;;;13.99;56.82
64632;BME280;58358;50.936;0.246;2022-08-21T02:46:20;101091.52;;;13.25;57.80
64632;BME280;58358;50.936;0.246;2022-08-21T02:48:44;101092.16;;;13.08;59.17
64632;BME280;58358;50.936;0.246;2022-08-21T02:51:11;101092.08;;;13.20;56.22
64632;BME280;58358;50.936;0.246;2022-08-21T02:53:36;101088.71;;;14.05;55.07
64632;BME280;58358;50.936;0.246;2022-08-21T02:56:03;101086.02;;;13.84;55.27
64632;BME280;58358;50.936;0.246;2022-08-21T02:58:29;101090.01;;;11.14;62.83
64632;BME280;58358;50.936;0.246;2022-08-21T03:00:53;101089.58;;;11.88;61.40
64632;BME280;58358;50.936;0.246;2022-08-21T03:03:19;101091.04;;;12.35;59.88
64632;BME280;58358;50.936;0.246;2022-08-21T03:05:44;101084.72;;;14.00;55.50
64632;BME280;58358;50.936;0.246;2022-08-21T03:08:12;101087.43;;;13.04;56.48
64632;BME280;58358;50.936;0.246;2022-08-21T03:10:36;101086.71;;;13.37;56.38
64632;BME280;58358;50.936;0.246;2022-08-21T03:13:02;101083.77;;;9.58;68.09
64632;BME280;58358;50.936;0.246;2022-08-21T03:15:27;101078.77;;;11.08;63.17
64632;BME280;58358;50.936;0.246;2022-08-21T03:17:53;101076.90;;;11.69;63.11
64632;BME280;58358;50.936;0.246;2022-08-21T03:20:21;101078.91;;;10.82;64.04
64632;BME280;58358;50.936;0.246;2022-08-21T03:22:44;101079.55;;;11.72;61.97
64632;BME280;58358;50.936;0.246;2022-08-21T03:25:10;101083.74;;;12.58;59.10
64632;BME280;58358;50.936;0.246;2022-08-21T03:27:36;101080.76;;;12.33;59.20
64632;BME280;58358;50.936;0.246;2022-08-21T03:30:04;101083.82;;;13.21;57.65
64632;BME280;58358;50.936;0.246;2022-08-21T03:32:29;101077.61;;;10.19;65.11
64632;BME280;58358;50.936;0.246;2022-08-21T03:34:53;101075.90;;;12.51;59.88
64632;BME280;58358;50.936;0.246;2022-08-21T03:37:19;101071.70;;;11.08;61.82
64632;BME280;58358;50.936;0.246;2022-08-21T03:39:45;101069.90;;;11.03;63.38
64632;BME280;58358;50.936;0.246;2022-08-21T03:42:11;101073.92;;;12.21;59.55
64632;BME280;58358;50.936;0.246;2022-08-21T03:44:37;101072.39;;;11.09;63.15
64632;BME280;58358;50.936;0.246;2022-08-21T03:47:03;101072.08;;;11.92;60.16
64632;BME280;58358;50.936;0.246;2022-08-21T03:49:28;101072.09;;;10.54;64.18
64632;BME280;58358;50.936;0.246;2022-08-21T03:51:54;101079.40;;;12.68;59.12
64632;BME280;58358;50.936;0.246;2022-08-21T03:54:20;101077.07;;;11.96;59.50
64632;BME280;58358;50.936;0.246;2022-08-21T03:56:45;101078.16;;;12.15;60.16
64632;BME280;58358;50.936;0.246;2022-08-21T03:59:11;101076.71;;;11.88;59.70
64632;BME280;58358;50.936;0.246;2022-08-21T04:01:37;101075.66;;;12.05;59.42
64632;BME280;58358;50.936;0.246;2022-08-21T04:04:03;101073.96;;;11.92;60.87
64632;BME280;58358;50.936;0.246;2022-08-21T04:06:28;101077.57;;;11.54;60.80
64632;BME280;58358;50.936;0.246;2022-08-21T04:08:54;101079.10;;;10.75;63.07
64632;BME280;58358;50.936;0.246;2022-08-21T04:11:20;101082.51;;;12.87;58.28
64632;BME280;58358;50.936;0.246;2022-08-21T04:13:46;101087.61;;;13.47;55.38
64632;BME280;58358;50.936;0.246;2022-08-21T04:16:12;101091.11;;;13.40;54.76
64632;BME280;58358;50.936;0.246;2022-08-21T04:18:37;101090.45;;;13.87;54.11
64632;BME280;58358;50.936;0.246;2022-08-21T04:21:03;101091.52;;;14.09;54.03
64632;BME280;58358;50.936;0.246;2022-08-21T04:23:29;101092.72;;;13.83;54.47
64632;BME280;58358;50.936;0.246;2022-08-21T04:25:56;101092.11;;;13.71;54.51
64632;BME280;58358;50.936;0.246;2022-08-21T04:28:20;101091.70;;;12.95;55.63
64632;BME280;58358;50.936;0.246;2022-08-21T04:30:46;101089.39;;;14.21;53.74
64632;BME280;58358;50.936;0.246;2022-08-21T04:33:12;101093.08;;;13.74;54.29
64632;BME280;58358;50.936;0.246;2022-08-21T04:35:37;101097.79;;;13.37;55.42
64632;BME280;58358;50.936;0.246;2022-08-21T04:38:03;101090.71;;;14.27;54.04
64632;BME280;58358;50.936;0.246;2022-08-21T04:40:29;101086.38;;;14.09;54.20
64632;BME280;58358;50.936;0.246;2022-08-21T04:43:01;101092.48;;;13.79;54.24
64632;BME280;58358;50.936;0.246;2022-08-21T04:45:26;101089.61;;;13.87;54.09
64632;BME280;58358;50.936;0.246;2022-08-21T04:47:48;101092.56;;;12.20;57.65
64632;BME280;58358;50.936;0.246;2022-08-21T04:50:13;101096.29;;;12.75;57.01
64632;BME280;58358;50.936;0.246;2022-08-21T04:52:38;101089.53;;;14.25;54.51
64632;BME280;58358;50.936;0.246;2022-08-21T04:55:04;101092.44;;;13.33;55.99
64632;BME280;58358;50.936;0.246;2022-08-21T04:57:31;101093.28;;;13.97;54.69
64632;BME280;58358;50.936;0.246;2022-08-21T04:59:55;101096.83;;;14.65;53.51
64632;BME280;58358;50.936;0.246;2022-08-21T05:02:23;101097.52;;;14.42;52.79
64632;BME280;58358;50.936;0.246;2022-08-21T05:04:52;101098.13;;;14.84;52.74
64632;BME280;58358;50.936;0.246;2022-08-21T05:07:17;101101.25;;;14.41;52.48
64632;BME280;58358;50.936;0.246;2022-08-21T05:09:38;101103.41;;;13.53;54.51
64632;BME280;58358;50.936;0.246;2022-08-21T05:12:05;101100.53;;;14.57;53.26
64632;BME280;58358;50.936;0.246;2022-08-21T05:14:30;101101.50;;;14.50;53.57
64632;BME280;58358;50.936;0.246;2022-08-21T05:16:55;101105.22;;;13.59;55.32
64632;BME280;58358;50.936;0.246;2022-08-21T05:19:21;101106.62;;;13.54;55.14
64632;BME280;58358;50.936;0.246;2022-08-21T05:21:47;101112.41;;;13.10;56.77
64632;BME280;58358;50.936;0.246;2022-08-21T05:24:16;101109.59;;;13.42;54.62
64632;BME280;58358;50.936;0.246;2022-08-21T05:26:39;101107.43;;;14.66;53.15
64632;BME280;58358;50.936;0.246;2022-08-21T05:29:05;101105.18;;;14.94;52.57
64632;BME280;58358;50.936;0.246;2022-08-21T05:31:30;101103.01;;;14.48;52.37
64632;BME280;58358;50.936;0.246;2022-08-21T05:33:56;101100.22;;;14.31;53.39
64632;BME280;58358;50.936;0.246;2022-08-21T05:36:23;101102.50;;;13.98;54.13
64632;BME280;58358;50.936;0.246;2022-08-21T05:38:47;101102.72;;;15.25;51.72
64632;BME280;58358;50.936;0.246;2022-08-21T05:41:13;101108.07;;;13.71;54.25
64632;BME280;58358;50.936;0.246;2022-08-21T05:43:39;101112.26;;;14.34;54.91
64632;BME280;58358;50.936;0.246;2022-08-21T05:46:06;101118.40;;;14.67;54.21
64632;BME280;58358;50.936;0.246;2022-08-21T05:48:31;101122.54;;;15.43;52.92
64632;BME280;58358;50.936;0.246;2022-08-21T05:50:56;101127.74;;;13.34;58.30
64632;BME280;58358;50.936;0.246;2022-08-21T05:53:23;101116.37;;;14.58;54.80
64632;BME280;58358;50.936;0.246;2022-08-21T05:55:48;101115.42;;;15.14;53.33
64632;BME280;58358;50.936;0.246;2022-08-21T05:58:14;101110.70;;;15.72;51.87
64632;BME280;58358;50.936;0.246;2022-08-21T06:00:39;101113.87;;;16.02;51.14
64632;BME280;58358;50.936;0.246;2022-08-21T06:03:10;101112.85;;;14.42;56.27
64632;BME280;58358;50.936;0.246;2022-08-21T06:05:30;101110.72;;;14.73;55.53
64632;BME280;58358;50.936;0.246;2022-08-21T06:07:56;101113.25;;;14.94;56.22
64632;BME280;58358;50.936;0.246;2022-08-21T06:10:22;101125.39;;;12.89;62.32
64632;BME280;58358;50.936;0.246;2022-08-21T06:12:53;101124.14;;;13.14;61.15
64632;BME280;58358;50.936;0.246;2022-08-21T06:15:14;101125.08;;;11.49;65.66
64632;BME280;58358;50.936;0.246;2022-08-21T06:17:39;101135.32;;;13.26;62.15
64632;BME280;58358;50.936;0.246;2022-08-21T06:20:06;101133.00;;;12.47;65.52
64632;BME280;58358;50.936;0.246;2022-08-21T06:22:30;101136.17;;;14.98;59.30
64632;BME280;58358;50.936;0.246;2022-08-21T06:24:56;101143.43;;;16.08;55.42
64632;BME280;58358;50.936;0.246;2022-08-21T06:27:22;101142.24;;;15.66;55.91
64632;BME280;58358;50.936;0.246;2022-08-21T06:29:47;101142.34;;;17.05;53.01
64632;BME280;58358;50.936;0.246;2022-08-21T06:32:13;101145.11;;;17.38;51.62
64632;BME280;58358;50.936;0.246;2022-08-21T06:34:39;101144.22;;;17.36;52.30
64632;BME280;58358;50.936;0.246;2022-08-21T06:37:05;101148.63;;;17.31;53.14
64632;BME280;58358;50.936;0.246;2022-08-21T06:39:30;101148.21;;;18.30;50.50
64632;BME280;58358;50.936;0.246;2022-08-21T06:41:56;101148.10;;;18.50;49.62
64632;BME280;58358;50.936;0.246;2022-08-21T06:44:21;101153.38;;;18.65;48.99
64632;BME280;58358;50.936;0.246;2022-08-21T06:46:47;101146.98;;;18.89;49.01
64632;BME280;58358;50.936;0.246;2022-08-21T06:49:13;101135.69;;;18.98;48.72
64632;BME280;58358;50.936;0.246;2022-08-21T06:51:38;101131.91;;;19.30;48.21
64632;BME280;58358;50.936;0.246;2022-08-21T06:54:04;101127.35;;;19.62;48.17
64632;BME280;58358;50.936;0.246;2022-08-21T06:56:31;101120.87;;;19.80;48.02
64632;BME280;58358;50.936;0.246;2022-08-21T06:58:55;101119.60;;;20.13;47.26
64632;BME280;58358;50.936;0.246;2022-08-21T07:01:23;101116.97;;;19.57;48.33
64632;BME280;58358;50.936;0.246;2022-08-21T07:03:46;101114.55;;;19.00;49.80
64632;BME280;58358;50.936;0.246;2022-08-21T07:06:12;101114.03;;;19.33;49.38
64632;BME280;58358;50.936;0.246;2022-08-21T07:08:39;101112.70;;;19.59;49.28
64632;BME280;58358;50.936;0.246;2022-08-21T07:11:07;101109.79;;;19.77;48.73
64632;BME280;58358;50.936;0.246;2022-08-21T07:13:29;101108.69;;;19.26;49.93
64632;BME280;58358;50.936;0.246;2022-08-21T07:15:55;101105.45;;;19.34;49.64
64632;BME280;58358;50.936;0.246;2022-08-21T07:18:21;101102.16;;;19.47;49.63
64632;BME280;58358;50.936;0.246;2022-08-21T07:20:46;101104.01;;;19.69;49.01
64632;BME280;58358;50.936;0.246;2022-08-21T07:23:14;101107.12;;;18.67;49.98
64632;BME280;58358;50.936;0.246;2022-08-21T07:25:37;101105.21;;;19.71;48.58
64632;BME280;58358;50.936;0.246;2022-08-21T07:28:03;101105.00;;;19.42;48.71
64632;BME280;58358;50.936;0.246;2022-08-21T07:30:28;101102.98;;;20.09;47.48
64632;BME280;58358;50.936;0.246;2022-08-21T07:32:54;101093.37;;;20.79;46.90
64632;BME280;58358;50.936;0.246;2022-08-21T07:35:20;101088.82;;;21.52;45.82
64632;BME280;58358;50.936;0.246;2022-08-21T07:37:45;101092.37;;;20.73;46.55
64632;BME280;58358;50.936;0.246;2022-08-21T07:40:11;101092.72;;;20.47;47.56
64632;BME280;58358;50.936;0.246;2022-08-21T07:42:41;101086.51;;;21.30;45.86
64632;BME280;58358;50.936;0.246;2022-08-21T07:45:01;101081.27;;;20.79;46.22
64632;BME280;58358;50.936;0.246;2022-08-21T07:47:27;101078.27;;;21.28;45.43
64632;BME280;58358;50.936;0.246;2022-08-21T07:49:52;101075.58;;;20.90;45.69
64632;BME280;58358;50.936;0.246;2022-08-21T07:52:19;101073.08;;;21.22;44.64
64632;BME280;58358;50.936;0.246;2022-08-21T07:54:44;101069.52;;;21.31;45.22
64632;BME280;58358;50.936;0.246;2022-08-21T07:57:09;101067.56;;;21.06;45.39
64632;BME280;58358;50.936;0.246;2022-08-21T07:59:35;101068.89;;;21.97;43.98
64632;BME280;58358;50.936;0.246;2022-08-21T08:02:00;101069.90;;;21.40;44.72
64632;BME280;58358;50.936;0.246;2022-08-21T08:04:26;101068.83;;;20.87;43.60
64632;BME280;58358;50.936;0.246;2022-08-21T08:06:53;101066.74;;;20.79;44.05
64632;BME280;58358;50.936;0.246;2022-08-21T08:09:17;101060.43;;;20.55;44.09
64632;BME280;58358;50.936;0.246;2022-08-21T08:11:43;101052.71;;;20.90;44.20
64632;BME280;58358;50.936;0.246;2022-08-21T08:14:09;101051.88;;;20.26;45.84
64632;BME280;58358;50.936;0.246;2022-08-21T08:16:34;101050.08;;;20.62;45.70
64632;BME280;58358;50.936;0.246;2022-08-21T08:19:00;101053.77;;;21.35;44.38
64632;BME280;58358;50.936;0.246;2022-08-21T08:21:25;101053.32;;;20.51;45.42
64632;BME280;58358;50.936;0.246;2022-08-21T08:23:51;101054.30;;;21.17;43.06
64632;BME280;58358;50.936;0.246;2022-08-21T08:26:16;101052.27;;;20.68;43.30
64632;BME280;58358;50.936;0.246;2022-08-21T08:28:42;101045.47;;;20.54;44.73
64632;BME280;58358;50.936;0.246;2022-08-21T08:31:08;101052.00;;;21.42;42.72
64632;BME280;58358;50.936;0.246;2022-08-21T08:33:33;101049.08;;;19.64;46.78
64632;BME280;58358;50.936;0.246;2022-08-21T08:35:59;101057.99;;;18.41;49.08
64632;BME280;58358;50.936;0.246;2022-08-21T08:38:25;101063.03;;;18.95;49.46
64632;BME280;58358;50.936;0.246;2022-08-21T08:40:58;101061.63;;;21.03;44.57
64632;BME280;58358;50.936;0.246;2022-08-21T08:43:16;101065.11;;;19.46;45.57
64632;BME280;58358;50.936;0.246;2022-08-21T08:45:46;101068.76;;;20.86;43.91
64632;BME280;58358;50.936;0.246;2022-08-21T08:48:10;101068.86;;;20.81;42.16
64632;BME280;58358;50.936;0.246;2022-08-21T08:50:39;101073.99;;;21.36;41.86
64632;BME280;58358;50.936;0.246;2022-08-21T08:53:02;101072.90;;;20.19;43.76
64632;BME280;58358;50.936;0.246;2022-08-21T08:55:28;101067.83;;;19.90;44.85
64632;BME280;58358;50.936;0.246;2022-08-21T08:57:50;101070.53;;;18.53;46.78
64632;BME280;58358;50.936;0.246;2022-08-21T09:00:16;101076.32;;;19.12;46.81
64632;BME280;58358;50.936;0.246;2022-08-21T09:02:42;101082.19;;;19.16;46.97
64632;BME280;58358;50.936;0.246;2022-08-21T09:05:08;101084.21;;;20.14;45.06
64632;BME280;58358;50.936;0.246;2022-08-21T09:07:39;101088.41;;;19.74;46.52
64632;BME280;58358;50.936;0.246;2022-08-21T09:10:11;101086.13;;;19.14;48.36
64632;BME280;58358;50.936;0.246;2022-08-21T09:12:33;101086.33;;;18.96;48.32
64632;BME280;58358;50.936;0.246;2022-08-21T09:15:00;101085.28;;;20.66;46.26
64632;BME280;58358;50.936;0.246;2022-08-21T09:17:42;101083.30;;;19.42;47.18
64632;BME280;58358;50.936;0.246;2022-08-21T09:19:53;101078.62;;;20.58;44.70
64632;BME280;58358;50.936;0.246;2022-08-21T09:22:13;101078.40;;;19.73;45.74
64632;BME280;58358;50.936;0.246;2022-08-21T09:24:37;101076.20;;;19.16;46.96
64632;BME280;58358;50.936;0.246;2022-08-21T09:27:04;101074.22;;;18.49;48.69
64632;BME280;58358;50.936;0.246;2022-08-21T09:29:24;101076.12;;;19.68;47.53
64632;BME280;58358;50.936;0.246;2022-08-21T09:31:48;101077.64;;;19.98;47.03
64632;BME280;58358;50.936;0.246;2022-08-21T09:36:42;101087.96;;;19.73;47.10
64632;BME280;58358;50.936;0.246;2022-08-21T09:39:06;101091.01;;;19.66;47.02
64632;BME280;58358;50.936;0.246;2022-08-21T09:41:33;101090.72;;;20.45;45.97
64632;BME280;58358;50.936;0.246;2022-08-21T09:43:56;101085.02;;;21.03;44.14
64632;BME280;58358;50.936;0.246;2022-08-21T09:46:23;101087.62;;;21.04;44.05
64632;BME280;58358;50.936;0.246;2022-08-21T09:48:49;101093.45;;;20.24;45.56
64632;BME280;58358;50.936;0.246;2022-08-21T09:51:15;101096.01;;;18.86;47.34
64632;BME280;58358;50.936;0.246;2022-08-21T09:53:42;101106.01;;;19.27;47.36
64632;BME280;58358;50.936;0.246;2022-08-21T09:58:32;101115.35;;;18.40;48.55
64632;BME280;58358;50.936;0.246;2022-08-21T10:00:58;101113.51;;;18.37;49.24
64632;BME280;58358;50.936;0.246;2022-08-21T10:03:23;101107.10;;;19.23;48.25
64632;BME280;58358;50.936;0.246;2022-08-21T10:05:52;101104.78;;;18.46;49.07
64632;BME280;58358;50.936;0.246;2022-08-21T10:08:18;101105.26;;;18.51;47.55
64632;BME280;58358;50.936;0.246;2022-08-21T10:10:38;101106.49;;;19.58;47.18
64632;BME280;58358;50.936;0.246;2022-08-21T10:13:09;101103.12;;;19.44;47.70
64632;BME280;58358;50.936;0.246;2022-08-21T10:15:37;101098.96;;;19.88;46.17
64632;BME280;58358;50.936;0.246;2022-08-21T10:18:04;101104.44;;;19.78;47.18
64632;BME280;58358;50.936;0.246;2022-08-21T10:20:23;101103.60;;;20.44;45.78
64632;BME280;58358;50.936;0.246;2022-08-21T10:22:54;101099.99;;;21.39;43.86
64632;BME280;58358;50.936;0.246;2022-08-21T10:25:16;101100.68;;;20.35;44.66
64632;BME280;58358;50.936;0.246;2022-08-21T10:27:43;101098.15;;;21.00;43.85
64632;BME280;58358;50.936;0.246;2022-08-21T10:30:06;101104.12;;;20.49;44.70
64632;BME280;58358;50.936;0.246;2022-08-21T10:32:37;101103.27;;;22.08;41.62
64632;BME280;58358;50.936;0.246;2022-08-21T10:35:02;101097.24;;;20.81;44.31
64632;BME280;58358;50.936;0.246;2022-08-21T10:37:31;101095.78;;;20.67;44.23
64632;BME280;58358;50.936;0.246;2022-08-21T10:39:53;101094.83;;;21.51;42.76
64632;BME280;58358;50.936;0.246;2022-08-21T10:42:24;101094.33;;;20.61;42.49
64632;BME280;58358;50.936;0.246;2022-08-21T10:44:43;101095.40;;;20.49;44.52
64632;BME280;58358;50.936;0.246;2022-08-21T10:47:05;101089.75;;;21.25;43.24
64632;BME280;58358;50.936;0.246;2022-08-21T10:49:38;101088.32;;;20.73;44.44
64632;BME280;58358;50.936;0.246;2022-08-21T10:52:05;101084.48;;;19.53;46.75
64632;BME280;58358;50.936;0.246;2022-08-21T10:54:26;101085.80;;;20.85;44.47
64632;BME280;58358;50.936;0.246;2022-08-21T10:56:45;101088.38;;;20.32;44.47
64632;BME280;58358;50.936;0.246;2022-08-21T10:59:20;101085.35;;;19.57;45.15
64632;BME280;58358;50.936;0.246;2022-08-21T11:01:42;101084.91;;;22.05;42.43
64632;BME280;58358;50.936;0.246;2022-08-21T11:04:11;101086.53;;;21.45;43.03
64632;BME280;58358;50.936;0.246;2022-08-21T11:06:29;101088.09;;;21.75;41.85
64632;BME280;58358;50.936;0.246;2022-08-21T11:08:57;101085.31;;;20.68;43.88
64632;BME280;58358;50.936;0.246;2022-08-21T11:11:22;101081.04;;;21.04;43.18
64632;BME280;58358;50.936;0.246;2022-08-21T11:13:47;101076.95;;;20.99;42.51
64632;BME280;58358;50.936;0.246;2022-08-21T11:16:15;101079.65;;;21.64;41.85
64632;BME280;58358;50.936;0.246;2022-08-21T11:18:38;101073.98;;;22.00;40.86
64632;BME280;58358;50.936;0.246;2022-08-21T11:21:06;101072.80;;;21.52;42.21
64632;BME280;58358;50.936;0.246;2022-08-21T11:23:32;101064.14;;;22.75;39.92
64632;BME280;58358;50.936;0.246;2022-08-21T11:25:55;101068.72;;;23.06;40.23
64632;BME280;58358;50.936;0.246;2022-08-21T11:28:22;101070.84;;;21.47;41.49
64632;BME280;58358;50.936;0.246;2022-08-21T11:30:54;101064.71;;;22.30;40.46
64632;BME280;58358;50.936;0.246;2022-08-21T11:35:41;101066.23;;;21.63;41.25
64632;BME280;58358;50.936;0.246;2022-08-21T11:38:12;101067.49;;;20.48;43.14
64632;BME280;58358;50.936;0.246;2022-08-21T11:40:39;101072.10;;;21.63;41.75
64632;BME280;58358;50.936;0.246;2022-08-21T11:42:58;101071.20;;;22.55;39.56
64632;BME280;58358;50.936;0.246;2022-08-21T11:45:23;101067.85;;;23.70;37.57
64632;BME280;58358;50.936;0.246;2022-08-21T11:47:54;101064.25;;;23.62;36.93
64632;BME280;58358;50.936;0.246;2022-08-21T11:50:14;101064.72;;;23.42;37.29
64632;BME280;58358;50.936;0.246;2022-08-21T11:52:37;101067.39;;;21.83;39.32
64632;BME280;58358;50.936;0.246;2022-08-21T11:55:02;101063.73;;;20.70;42.50
64632;BME280;58358;50.936;0.246;2022-08-21T11:57:28;101064.72;;;21.48;42.12
64632;BME280;58358;50.936;0.246;2022-08-21T11:59:56;101064.23;;;21.24;42.85
64632;BME280;58358;50.936;0.246;2022-08-21T12:02:18;101066.93;;;20.56;44.46
64632;BME280;58358;50.936;0.246;2022-08-21T12:04:45;101065.53;;;20.22;45.72
64632;BME280;58358;50.936;0.246;2022-08-21T12:07:12;101071.20;;;19.18;47.26
64632;BME280;58358;50.936;0.246;2022-08-21T12:09:34;101071.09;;;20.42;45.54
64632;BME280;58358;50.936;0.246;2022-08-21T12:12:04;101074.62;;;19.92;46.17
64632;BME280;58358;50.936;0.246;2022-08-21T12:14:22;101072.35;;;19.35;47.93
64632;BME280;58358;50.936;0.246;2022-08-21T12:16:49;101068.49;;;21.16;44.65
64632;BME280;58358;50.936;0.246;2022-08-21T12:21:50;101071.66;;;20.44;45.47
64632;BME280;58358;50.936;0.246;2022-08-21T12:24:16;101070.97;;;21.16;44.48
64632;BME280;58358;50.936;0.246;2022-08-21T12:26:33;101067.63;;;21.21;44.18
64632;BME280;58358;50.936;0.246;2022-08-21T12:29:12;101072.27;;;21.16;44.10
64632;BME280;58358;50.936;0.246;2022-08-21T12:31:24;101071.57;;;19.62;44.75
64632;BME280;58358;50.936;0.246;2022-08-21T12:33:55;101068.67;;;21.11;43.77
64632;BME280;58358;50.936;0.246;2022-08-21T12:36:17;101071.32;;;20.80;43.05
64632;BME280;58358;50.936;0.246;2022-08-21T12:38:47;101067.84;;;21.44;41.98
64632;BME280;58358;50.936;0.246;2022-08-21T12:41:11;101066.06;;;21.47;41.07
64632;BME280;58358;50.936;0.246;2022-08-21T12:43:34;101064.95;;;22.64;40.06
64632;BME280;58358;50.936;0.246;2022-08-21T12:45:55;101065.39;;;23.17;39.51
64632;BME280;58358;50.936;0.246;2022-08-21T12:48:26;101063.87;;;21.55;41.73
64632;BME280;58358;50.936;0.246;2022-08-21T12:50:52;101060.69;;;20.75;44.24